createdAt,value
2023-01-19T00:01:41.693Z,63.20
2023-01-19T00:04:09.600Z,63.20
2023-01-19T00:06:37.503Z,63.40
2023-01-19T00:09:05.438Z,63.40
2023-01-19T00:11:33.336Z,63.50
2023-01-19T00:14:01.235Z,63.40
2023-01-19T00:16:30.507Z,63.30
2023-01-19T00:18:58.414Z,63.40
2023-01-19T00:21:26.358Z,63.50
2023-01-19T00:23:54.307Z,63.80
2023-01-19T00:26:23.046Z,63.70
2023-01-19T00:28:51.211Z,63.30
2023-01-19T00:31:21.589Z,63.10
2023-01-19T00:33:52.708Z,63.10
2023-01-19T00:36:20.746Z,63.10
2023-01-19T00:38:48.680Z,63.20
2023-01-19T00:41:16.800Z,63.20
2023-01-19T00:43:43.716Z,63.20
2023-01-19T00:46:11.792Z,63.20
2023-01-19T00:48:39.698Z,63.30
2023-01-19T00:51:08.953Z,63.30
2023-01-19T00:53:36.863Z,63.30
2023-01-19T00:56:04.899Z,63.50
2023-01-19T00:58:32.805Z,63.40
2023-01-19T01:01:03.709Z,63.40
2023-01-19T01:03:31.914Z,63.40
2023-01-19T01:05:59.899Z,63.40
2023-01-19T01:08:29.164Z,63.50
2023-01-19T01:10:57.048Z,63.60
2023-01-19T01:13:27.447Z,63.80
2023-01-19T01:15:56.379Z,63.60
2023-01-19T01:18:24.313Z,63.30
2023-01-19T01:20:53.930Z,63.00
2023-01-19T01:23:23.532Z,63.00
2023-01-19T01:25:52.725Z,63.00
2023-01-19T01:28:20.622Z,63.20
2023-01-19T01:30:48.689Z,63.10
2023-01-19T01:33:39.837Z,63.10
2023-01-19T01:36:04.693Z,63.20
2023-01-19T01:38:32.617Z,63.20
2023-01-19T01:41:01.878Z,63.30
2023-01-19T01:43:43.557Z,63.50
2023-01-19T01:46:11.492Z,63.40
2023-01-19T01:48:39.416Z,63.40
2023-01-19T01:51:27.406Z,63.50
2023-01-19T01:54:06.550Z,63.30
2023-01-19T01:56:38.061Z,63.40
2023-01-19T01:59:07.452Z,63.50
2023-01-19T02:01:53.848Z,63.80
2023-01-19T02:04:21.860Z,63.70
2023-01-19T02:07:07.014Z,63.20
2023-01-19T02:09:55.023Z,63.00
2023-01-19T02:12:41.706Z,63.00
2023-01-19T02:15:16.867Z,63.10
2023-01-19T02:17:44.759Z,63.40
2023-01-19T02:20:13.187Z,63.20
2023-01-19T02:22:45.061Z,63.20
2023-01-19T02:25:14.304Z,63.20
2023-01-19T02:27:42.222Z,63.20
2023-01-19T02:30:11.328Z,63.30
2023-01-19T02:32:39.194Z,63.40
2023-01-19T02:35:07.810Z,63.80
2023-01-19T02:37:37.503Z,63.60
2023-01-19T02:40:06.376Z,63.20
2023-01-19T02:42:37.395Z,63.00
2023-01-19T02:45:06.864Z,63.00
2023-01-19T02:47:39.668Z,62.90
2023-01-19T02:50:27.885Z,63.20
2023-01-19T02:52:55.841Z,63.20
2023-01-19T02:55:23.720Z,63.20
2023-01-19T02:57:58.049Z,63.20
2023-01-19T03:00:32.529Z,63.20
2023-01-19T03:03:09.341Z,63.20
2023-01-19T03:05:46.325Z,63.50
2023-01-19T03:08:17.270Z,63.30
2023-01-19T03:10:48.685Z,63.50
2023-01-19T03:13:19.936Z,63.40
2023-01-19T03:15:50.825Z,64.10
2023-01-19T03:18:21.082Z,63.40
2023-01-19T03:20:49.175Z,63.50
2023-01-19T03:23:17.041Z,63.70
2023-01-19T03:25:45.732Z,63.70
2023-01-19T03:28:13.583Z,63.20
2023-01-19T03:30:45.910Z,63.00
2023-01-19T03:33:15.757Z,62.90
2023-01-19T03:35:47.271Z,62.90
2023-01-19T03:38:17.179Z,63.20
2023-01-19T03:40:45.049Z,63.10
2023-01-19T03:43:12.906Z,63.20
2023-01-19T03:45:42.091Z,63.10
2023-01-19T03:48:09.976Z,63.20
2023-01-19T03:50:38.002Z,63.20
2023-01-19T03:53:10.754Z,63.30
2023-01-19T03:55:39.983Z,63.40
2023-01-19T03:58:07.949Z,63.30
2023-01-19T04:00:36.526Z,63.30
2023-01-19T04:03:06.255Z,63.30
2023-01-19T04:05:34.262Z,63.30
2023-01-19T04:08:02.191Z,63.30
2023-01-19T04:10:30.045Z,63.50
2023-01-19T04:13:01.755Z,63.80
2023-01-19T04:15:29.916Z,63.50
2023-01-19T04:17:58.414Z,63.00
2023-01-19T04:20:28.213Z,63.00
2023-01-19T04:22:57.438Z,63.00
2023-01-19T04:25:25.403Z,63.10
2023-01-19T04:27:53.769Z,63.20
2023-01-19T04:30:22.517Z,63.30
2023-01-19T04:32:50.645Z,63.30
2023-01-19T04:35:18.686Z,64.00
2023-01-19T04:37:47.936Z,63.30
2023-01-19T04:40:16.014Z,63.20
2023-01-19T04:42:44.859Z,63.30
2023-01-19T04:45:13.255Z,63.40
2023-01-19T04:47:42.519Z,63.30
2023-01-19T04:50:11.576Z,63.30
2023-01-19T04:52:39.478Z,63.40
2023-01-19T04:55:10.121Z,63.20
2023-01-19T04:57:37.999Z,63.20
2023-01-19T05:00:07.571Z,63.30
2023-01-19T05:02:35.681Z,63.40
2023-01-19T05:05:03.841Z,63.50
2023-01-19T05:07:31.676Z,63.10
2023-01-19T05:09:59.596Z,62.70
2023-01-19T05:12:28.834Z,62.50
2023-01-19T05:14:56.747Z,62.60
2023-01-19T05:17:24.664Z,62.60
2023-01-19T05:19:52.567Z,62.70
2023-01-19T05:22:20.493Z,62.70
2023-01-19T05:24:48.407Z,62.60
2023-01-19T05:27:16.316Z,62.60
2023-01-19T05:29:45.529Z,62.70
2023-01-19T05:32:13.625Z,62.90
2023-01-19T05:34:41.525Z,63.00
2023-01-19T05:37:09.483Z,62.90
2023-01-19T05:39:37.377Z,62.90
2023-01-19T05:42:05.769Z,62.90
2023-01-19T05:44:33.706Z,62.90
2023-01-19T05:47:02.968Z,62.90
2023-01-19T05:49:31.199Z,62.90
2023-01-19T05:51:59.043Z,63.40
2023-01-19T05:54:27.106Z,63.30
2023-01-19T05:56:55.014Z,63.00
2023-01-19T05:59:24.145Z,62.70
2023-01-19T06:01:52.245Z,62.60
2023-01-19T06:04:21.687Z,63.30
2023-01-19T06:06:49.665Z,62.80
2023-01-19T06:09:18.142Z,62.70
2023-01-19T06:11:46.112Z,62.80
2023-01-19T06:14:14.245Z,62.90
2023-01-19T06:16:42.275Z,62.90
2023-01-19T06:19:10.649Z,63.00
2023-01-19T06:21:39.919Z,63.20
2023-01-19T06:24:08.159Z,63.30
2023-01-19T06:26:36.268Z,63.20
2023-01-19T06:29:04.182Z,63.40
2023-01-19T06:31:32.125Z,63.30
2023-01-19T06:34:00.046Z,63.30
2023-01-19T06:36:27.948Z,63.20
2023-01-19T06:38:57.235Z,63.30
2023-01-19T06:41:25.091Z,63.60
2023-01-19T06:43:52.961Z,63.50
2023-01-19T06:46:20.807Z,63.00
2023-01-19T06:48:48.806Z,62.90
2023-01-19T06:51:16.699Z,62.80
2023-01-19T06:53:44.546Z,62.80
2023-01-19T06:56:13.805Z,63.00
2023-01-19T06:58:42.546Z,63.60
2023-01-19T07:01:10.565Z,63.00
2023-01-19T07:03:38.975Z,62.90
2023-01-19T07:06:07.624Z,62.90
2023-01-19T07:08:35.673Z,62.90
2023-01-19T07:11:24.856Z,62.90
2023-01-19T07:13:55.398Z,63.20
2023-01-19T07:16:23.436Z,63.10
2023-01-19T07:18:51.434Z,63.00
2023-01-19T07:21:19.467Z,63.00
2023-01-19T07:23:50.973Z,63.00
2023-01-19T07:26:21.237Z,63.10
2023-01-19T07:28:49.279Z,63.20
2023-01-19T07:31:19.053Z,63.40
2023-01-19T07:33:47.142Z,63.30
2023-01-19T07:36:15.043Z,63.00
2023-01-19T07:38:42.916Z,62.70
2023-01-19T07:41:10.998Z,62.50
2023-01-19T07:43:38.977Z,62.60
2023-01-19T07:46:07.340Z,62.90
2023-01-19T07:48:36.650Z,62.90
2023-01-19T07:51:10.412Z,62.90
2023-01-19T07:53:41.811Z,62.90
2023-01-19T07:56:10.054Z,62.90
2023-01-19T07:58:37.927Z,63.00
2023-01-19T08:01:08.017Z,63.10
2023-01-19T08:03:37.370Z,63.30
2023-01-19T08:06:06.116Z,63.10
2023-01-19T08:08:34.216Z,63.10
2023-01-19T08:11:03.031Z,63.10
2023-01-19T08:13:30.945Z,63.20
2023-01-19T08:15:59.105Z,63.20
2023-01-19T08:18:27.108Z,63.30
2023-01-19T08:20:56.346Z,63.60
2023-01-19T08:23:24.269Z,63.30
2023-01-19T08:25:52.174Z,63.10
2023-01-19T08:28:20.103Z,62.70
2023-01-19T08:30:54.079Z,62.70
2023-01-19T08:33:23.012Z,62.80
2023-01-19T08:35:52.317Z,63.00
2023-01-19T08:38:21.569Z,62.90
2023-01-19T08:40:49.844Z,62.90
2023-01-19T08:43:18.136Z,62.90
2023-01-19T08:45:48.207Z,63.00
2023-01-19T08:48:16.351Z,63.10
2023-01-19T08:50:46.072Z,63.20
2023-01-19T08:53:13.969Z,63.40
2023-01-19T08:55:43.327Z,63.20
2023-01-19T08:58:11.334Z,63.20
2023-01-19T09:00:40.184Z,63.20
2023-01-19T09:03:08.735Z,63.20
2023-01-19T09:05:38.610Z,63.30
2023-01-19T09:08:08.167Z,63.30
2023-01-19T09:10:37.733Z,63.40
2023-01-19T09:13:08.159Z,63.40
2023-01-19T09:15:37.695Z,63.30
2023-01-19T09:18:06.856Z,63.30
2023-01-19T09:20:38.460Z,63.40
2023-01-19T09:23:06.332Z,63.40
2023-01-19T09:25:34.242Z,63.50
2023-01-19T09:28:02.478Z,63.70
2023-01-19T09:30:32.951Z,63.50
2023-01-19T09:33:04.628Z,63.10
2023-01-19T09:35:32.527Z,62.70
2023-01-19T09:38:00.678Z,62.70
2023-01-19T09:40:28.991Z,62.80
2023-01-19T09:42:59.347Z,62.90
2023-01-19T09:45:32.495Z,62.90
2023-01-19T09:48:00.897Z,62.90
2023-01-19T09:50:30.044Z,62.90
2023-01-19T09:53:01.380Z,63.00
2023-01-19T09:55:29.481Z,63.00
2023-01-19T09:57:57.350Z,63.20
2023-01-19T10:00:25.335Z,63.40
2023-01-19T10:02:56.932Z,63.30
2023-01-19T10:05:28.334Z,63.30
2023-01-19T10:08:03.602Z,63.20
2023-01-19T10:10:32.583Z,63.30
2023-01-19T10:13:11.197Z,63.30
2023-01-19T10:15:44.229Z,63.50
2023-01-19T10:18:17.686Z,63.40
2023-01-19T10:20:48.473Z,63.40
2023-01-19T10:23:30.433Z,63.40
2023-01-19T10:25:58.464Z,63.40
2023-01-19T10:28:26.829Z,63.50
2023-01-19T10:30:55.547Z,63.50
2023-01-19T10:33:24.852Z,63.60
2023-01-19T10:35:52.785Z,63.50
2023-01-19T10:38:22.178Z,63.20
2023-01-19T10:40:54.468Z,62.70
2023-01-19T10:43:37.334Z,62.50
2023-01-19T10:46:07.086Z,62.60
2023-01-19T10:48:41.897Z,62.90
2023-01-19T10:51:10.518Z,62.80
2023-01-19T10:53:38.438Z,62.80
2023-01-19T10:56:14.486Z,62.90
2023-01-19T10:58:42.406Z,62.90
2023-01-19T11:01:15.417Z,63.00
2023-01-19T11:03:44.767Z,63.00
2023-01-19T11:06:27.541Z,63.20
2023-01-19T11:09:10.609Z,63.10
2023-01-19T11:11:49.694Z,63.20
2023-01-19T11:14:20.103Z,63.10
2023-01-19T11:16:49.759Z,63.10
2023-01-19T11:19:25.687Z,63.10
2023-01-19T11:21:54.101Z,63.30
2023-01-19T11:24:21.993Z,63.20
2023-01-19T11:26:50.738Z,63.90
2023-01-19T11:29:20.270Z,63.10
2023-01-19T11:31:48.238Z,63.10
2023-01-19T11:34:31.680Z,63.10
2023-01-19T11:37:00.700Z,63.30
2023-01-19T11:39:29.735Z,63.50
2023-01-19T11:41:58.966Z,63.40
2023-01-19T11:44:29.106Z,63.00
2023-01-19T11:46:58.189Z,62.60
2023-01-19T11:49:31.033Z,62.50
2023-01-19T11:52:00.851Z,62.60
2023-01-19T11:54:30.954Z,62.80
2023-01-19T11:57:00.037Z,62.80
2023-01-19T11:59:28.007Z,62.80
2023-01-19T12:01:57.702Z,62.80
2023-01-19T12:04:28.243Z,62.90
2023-01-19T12:06:56.795Z,62.90
2023-01-19T12:09:25.417Z,63.00
2023-01-19T12:11:56.135Z,63.20
2023-01-19T12:14:26.725Z,63.00
2023-01-19T12:16:55.798Z,63.00
2023-01-19T12:19:25.738Z,63.00
2023-01-19T12:21:55.004Z,63.10
2023-01-19T12:24:27.590Z,63.10
2023-01-19T12:26:57.087Z,63.30
2023-01-19T12:29:25.925Z,63.70
2023-01-19T12:32:18.050Z,62.30
2023-01-19T12:34:46.581Z,62.30
2023-01-19T12:37:32.517Z,62.20
2023-01-19T12:40:01.206Z,62.20
2023-01-19T12:42:29.124Z,62.20
2023-01-19T12:45:06.565Z,62.50
2023-01-19T12:47:34.551Z,62.50
2023-01-19T12:50:06.942Z,62.40
2023-01-19T12:52:36.828Z,62.60
2023-01-19T12:55:16.099Z,62.60
2023-01-19T12:57:49.375Z,62.60
2023-01-19T13:00:30.632Z,62.80
2023-01-19T13:02:58.871Z,62.80
2023-01-19T13:05:59.469Z,62.80
2023-01-19T13:08:51.493Z,62.80
2023-01-19T13:11:26.030Z,62.80
2023-01-19T13:14:36.829Z,62.90
2023-01-19T13:17:19.578Z,63.10
2023-01-19T13:19:50.421Z,63.30
2023-01-19T13:22:50.400Z,63.00
2023-01-19T13:25:28.642Z,62.70
2023-01-19T13:27:56.898Z,62.60
2023-01-19T13:30:27.067Z,62.60
2023-01-19T13:32:55.868Z,62.80
2023-01-19T13:35:23.721Z,62.80
2023-01-19T13:37:51.622Z,62.80
2023-01-19T13:40:22.331Z,62.80
2023-01-19T13:42:52.101Z,62.80
2023-01-19T13:45:27.978Z,62.90
2023-01-19T13:47:56.065Z,63.00
2023-01-19T13:50:25.353Z,63.20
2023-01-19T13:52:55.439Z,63.20
2023-01-19T13:55:23.707Z,63.10
2023-01-19T13:57:52.974Z,63.10
2023-01-19T14:00:22.366Z,63.10
2023-01-19T14:02:58.779Z,63.30
2023-01-19T14:05:28.712Z,63.10
2023-01-19T14:08:07.701Z,63.50
2023-01-19T14:10:35.856Z,63.60
2023-01-19T14:13:06.128Z,63.30
2023-01-19T14:15:34.915Z,62.70
2023-01-19T14:18:19.544Z,62.60
2023-01-19T14:20:53.877Z,62.60
2023-01-19T14:23:41.056Z,62.90
2023-01-19T14:26:46.412Z,62.80
2023-01-19T14:29:22.754Z,62.90
2023-01-19T14:31:51.597Z,62.80
2023-01-19T14:34:39.738Z,62.80
2023-01-19T14:37:17.412Z,63.00
2023-01-19T14:39:46.159Z,63.30
2023-01-19T14:42:17.569Z,63.30
2023-01-19T14:44:48.904Z,63.20
2023-01-19T14:47:26.572Z,63.30
2023-01-19T14:49:54.861Z,63.30
2023-01-19T14:52:23.810Z,63.40
2023-01-19T14:54:51.730Z,63.40
2023-01-19T14:57:19.656Z,63.40
2023-01-19T14:59:50.222Z,63.40
2023-01-19T15:02:19.430Z,63.50
2023-01-19T15:04:48.064Z,63.50
2023-01-19T15:07:18.310Z,63.40
2023-01-19T15:09:46.656Z,63.40
2023-01-19T15:12:17.299Z,63.50
2023-01-19T15:14:45.412Z,63.80
2023-01-19T15:17:17.882Z,63.70
2023-01-19T15:19:45.809Z,63.30
2023-01-19T15:22:14.756Z,62.90
2023-01-19T15:24:42.632Z,62.70
2023-01-19T15:27:11.953Z,62.90
2023-01-19T15:29:40.314Z,63.00
2023-01-19T15:32:12.333Z,63.00
2023-01-19T15:34:41.606Z,63.10
2023-01-19T15:37:09.556Z,63.20
2023-01-19T15:39:37.400Z,63.20
2023-01-19T15:42:05.374Z,63.20
2023-01-19T15:44:33.260Z,63.30
2023-01-19T15:47:01.148Z,63.50
2023-01-19T15:49:30.800Z,63.50
2023-01-19T15:52:00.122Z,63.40
2023-01-19T15:54:28.038Z,63.50
2023-01-19T15:56:55.977Z,63.50
2023-01-19T15:59:24.025Z,63.50
2023-01-19T16:01:52.207Z,63.70
2023-01-19T16:04:20.213Z,63.90
2023-01-19T16:06:50.075Z,63.80
2023-01-19T16:09:20.086Z,63.50
2023-01-19T16:11:48.003Z,63.10
2023-01-19T16:14:17.461Z,63.20
2023-01-19T16:16:46.195Z,63.20
2023-01-19T16:19:15.589Z,63.30
2023-01-19T16:21:43.889Z,63.40
2023-01-19T16:24:11.832Z,63.40
2023-01-19T16:26:41.185Z,63.60
2023-01-19T16:29:10.638Z,63.70
2023-01-19T16:31:38.742Z,63.70
2023-01-19T16:34:06.706Z,63.70
2023-01-19T16:36:35.591Z,63.90
2023-01-19T16:39:04.879Z,63.60
2023-01-19T16:41:33.693Z,63.80
2023-01-19T16:44:02.950Z,63.70
2023-01-19T16:46:33.751Z,63.70
2023-01-19T16:49:02.520Z,63.70
2023-01-19T16:51:30.420Z,63.90
2023-01-19T16:53:58.300Z,63.90
2023-01-19T16:56:26.253Z,64.00
2023-01-19T16:58:54.682Z,63.70
2023-01-19T17:01:24.197Z,63.20
2023-01-19T17:03:52.264Z,63.90
2023-01-19T17:06:22.651Z,63.20
2023-01-19T17:08:50.696Z,63.20
2023-01-19T17:11:20.676Z,63.30
2023-01-19T17:13:48.627Z,63.40
2023-01-19T17:16:16.568Z,63.30
2023-01-19T17:18:45.839Z,63.50
2023-01-19T17:21:17.680Z,63.50
2023-01-19T17:23:46.029Z,63.50
2023-01-19T17:26:14.070Z,63.70
2023-01-19T17:28:42.284Z,63.70
2023-01-19T17:31:11.255Z,63.70
2023-01-19T17:33:39.272Z,63.80
2023-01-19T17:36:09.934Z,63.80
2023-01-19T17:38:37.891Z,63.90
2023-01-19T17:41:13.257Z,64.00
2023-01-19T17:43:41.207Z,64.50
2023-01-19T17:46:09.184Z,64.50
2023-01-19T17:48:37.181Z,63.90
2023-01-19T17:51:05.635Z,64.40
2023-01-19T17:53:34.933Z,63.80
2023-01-19T17:56:06.199Z,63.80
2023-01-19T17:58:34.083Z,63.80
2023-01-19T18:01:09.020Z,64.00
2023-01-19T18:03:36.980Z,64.10
2023-01-19T18:06:05.099Z,64.10
2023-01-19T18:08:36.162Z,64.10
2023-01-19T18:11:04.090Z,64.10
2023-01-19T18:13:31.973Z,64.30
2023-01-19T18:16:00.833Z,64.50
2023-01-19T18:18:28.790Z,64.60
2023-01-19T18:20:59.658Z,64.70
2023-01-19T18:23:27.797Z,64.80
2023-01-19T18:26:00.683Z,64.80
2023-01-19T18:28:28.785Z,64.80
2023-01-19T18:30:57.777Z,64.90
2023-01-19T18:33:25.775Z,64.90
2023-01-19T18:35:53.713Z,64.90
2023-01-19T18:38:21.654Z,64.50
2023-01-19T18:40:49.575Z,64.20
2023-01-19T18:43:18.825Z,64.10
2023-01-19T18:45:48.028Z,64.20
2023-01-19T18:48:17.997Z,64.40
2023-01-19T18:50:46.017Z,64.40
2023-01-19T18:53:14.193Z,64.30
2023-01-19T18:55:44.939Z,64.50
2023-01-19T18:58:12.825Z,64.40
2023-01-19T19:00:42.080Z,64.60
2023-01-19T19:03:10.358Z,64.50
2023-01-19T19:05:38.325Z,64.60
2023-01-19T19:08:06.633Z,64.50
2023-01-19T19:10:34.734Z,64.60
2023-01-19T19:13:02.739Z,64.70
2023-01-19T19:15:30.692Z,64.70
2023-01-19T19:17:59.927Z,64.80
2023-01-19T19:20:27.830Z,64.80
2023-01-19T19:22:56.027Z,65.00
2023-01-19T19:25:23.937Z,64.80
2023-01-19T19:27:52.315Z,64.30
2023-01-19T19:30:20.767Z,64.20
2023-01-19T19:32:53.662Z,64.30
2023-01-19T19:35:22.940Z,64.30
2023-01-19T19:37:51.459Z,64.50
2023-01-19T19:40:19.625Z,64.40
2023-01-19T19:42:47.495Z,64.30
2023-01-19T19:45:15.632Z,64.50
2023-01-19T19:47:43.872Z,64.60
2023-01-19T19:50:12.815Z,64.60
2023-01-19T19:52:42.387Z,64.70
2023-01-19T19:55:10.946Z,64.70
2023-01-19T19:57:38.944Z,64.70
2023-01-19T20:00:08.050Z,64.70
2023-01-19T20:02:38.818Z,64.70
2023-01-19T20:05:07.304Z,64.80
2023-01-19T20:07:35.274Z,64.80
2023-01-19T20:10:04.774Z,64.80
2023-01-19T20:12:32.648Z,64.80
2023-01-19T20:15:00.556Z,64.60
2023-01-19T20:17:28.545Z,64.30
2023-01-19T20:19:56.457Z,64.30
2023-01-19T20:22:24.341Z,64.30
2023-01-19T20:24:52.285Z,65.10
2023-01-19T20:27:21.515Z,64.50
2023-01-19T20:29:51.810Z,64.50
2023-01-19T20:32:19.859Z,64.50
2023-01-19T20:34:47.754Z,64.50
2023-01-19T20:37:15.665Z,64.50
2023-01-19T20:39:43.781Z,64.60
2023-01-19T20:42:13.547Z,64.80
2023-01-19T20:44:42.787Z,64.70
2023-01-19T20:47:10.740Z,64.80
2023-01-19T20:49:38.701Z,64.70
2023-01-19T20:52:06.628Z,64.80
2023-01-19T20:54:34.625Z,64.80
2023-01-19T20:57:02.600Z,64.80
2023-01-19T20:59:30.475Z,64.90
2023-01-19T21:01:59.752Z,64.90
2023-01-19T21:04:27.737Z,64.50
2023-01-19T21:06:55.649Z,64.10
2023-01-19T21:09:23.761Z,64.10
2023-01-19T21:11:51.771Z,64.30
2023-01-19T21:14:19.620Z,64.30
2023-01-19T21:16:47.642Z,64.30
2023-01-19T21:19:17.219Z,64.40
2023-01-19T21:21:45.158Z,64.40
2023-01-19T21:24:13.023Z,64.50
2023-01-19T21:26:41.677Z,64.50
2023-01-19T21:29:13.085Z,64.60
2023-01-19T21:31:41.093Z,64.70
2023-01-19T21:34:09.020Z,64.70
2023-01-19T21:36:38.308Z,64.70
2023-01-19T21:39:08.001Z,64.70
2023-01-19T21:41:37.893Z,64.80
2023-01-19T21:44:06.095Z,64.80
2023-01-19T21:46:34.059Z,64.80
2023-01-19T21:49:02.775Z,64.80
2023-01-19T21:51:33.282Z,64.60
2023-01-19T21:54:02.665Z,64.30
2023-01-19T21:56:30.630Z,64.20
2023-01-19T21:58:59.359Z,64.30
2023-01-19T22:01:28.628Z,64.40
2023-01-19T22:03:56.742Z,64.50
2023-01-19T22:06:25.124Z,65.20
2023-01-19T22:08:53.025Z,64.40
2023-01-19T22:11:23.407Z,64.50
2023-01-19T22:13:51.404Z,64.60
2023-01-19T22:16:20.251Z,64.60
2023-01-19T22:18:53.821Z,64.80
2023-01-19T22:21:22.848Z,64.80
2023-01-19T22:23:50.946Z,64.60
2023-01-19T22:26:18.857Z,64.20
2023-01-19T22:28:48.085Z,64.20
2023-01-19T22:31:17.012Z,64.30
2023-01-19T22:33:45.229Z,64.40
2023-01-19T22:36:14.857Z,64.50
2023-01-19T22:38:42.851Z,64.50
2023-01-19T22:41:17.800Z,64.50
2023-01-19T22:43:45.775Z,64.50
2023-01-19T22:46:17.661Z,64.50
2023-01-19T22:48:45.622Z,64.60
2023-01-19T22:51:13.545Z,64.80
2023-01-19T22:53:41.555Z,64.90
2023-01-19T22:56:13.799Z,64.60
2023-01-19T22:58:43.563Z,64.20
2023-01-19T23:01:11.713Z,64.10
2023-01-19T23:03:41.112Z,64.20
2023-01-19T23:06:10.384Z,64.30
2023-01-19T23:08:38.325Z,64.50
2023-01-19T23:11:07.014Z,64.40
2023-01-19T23:13:35.064Z,64.40
2023-01-19T23:16:03.040Z,64.50
2023-01-19T23:18:31.055Z,64.50
2023-01-19T23:21:04.648Z,64.50
2023-01-19T23:23:32.932Z,64.70
2023-01-19T23:26:01.987Z,64.80
2023-01-19T23:28:30.597Z,64.70
2023-01-19T23:30:58.608Z,64.30
2023-01-19T23:33:26.554Z,64.20
2023-01-19T23:35:55.851Z,64.10
2023-01-19T23:38:25.129Z,64.20
2023-01-19T23:40:53.023Z,64.50
2023-01-19T23:43:21.369Z,64.30
2023-01-19T23:45:49.334Z,64.30
2023-01-19T23:48:17.197Z,64.30
2023-01-19T23:50:45.062Z,64.40
2023-01-19T23:53:12.947Z,64.50
2023-01-19T23:55:42.314Z,64.50
2023-01-19T23:58:10.163Z,64.70
